Time;durP1;ratioP1;P1;durP2;ratioP2;P2;SDS_P1;SDS_P2;PMS_P1;PMS_P2;Temp;Humidity;BMP_temperature;BMP_pressure;BME280_temperature;BME280_humidity;BME280_pressure;Samples;Min_cycle;Max_cycle;Signal;HPM_P1;HPM_P2
2023/05/30 07:01:13;;;;;;;4.30;0.87;;;14.90;99.90;17.30;102635.00;;;;6278406;22;20229;-68
2023/05/30 07:04:05;;;;;;;0.77;0.77;;;15.30;99.90;17.80;102624.00;;;;6278162;22;20218;-68
2023/05/30 07:06:31;;;;;;;2.13;0.80;;;15.50;99.90;19.00;102618.00;;;;6278124;22;20156;-66
2023/05/30 07:09:00;;;;;;;0.32;0.32;;;16.20;99.90;20.10;102634.00;;;;6251372;22;20223;-68
2023/05/30 07:11:26;;;;;;;5.57;1.85;;;16.90;99.90;17.80;102658.00;;;;6226248;22;20176;-65
2023/05/30 07:13:52;;;;;;;0.60;0.60;;;16.60;99.90;20.20;102635.00;;;;6251420;22;20561;-68
2023/05/30 07:16:21;;;;;;;2.58;0.82;;;17.00;99.90;18.60;102664.00;;;;6278548;22;20169;-68
2023/05/30 07:18:47;;;;;;;1.38;0.38;;;16.70;99.90;18.40;102659.00;;;;6250740;22;20548;-67
2023/05/30 07:21:20;;;;;;;1.95;1.23;;;16.40;99.90;18.60;102667.00;;;;6278540;22;20149;-68
2023/05/30 07:23:46;;;;;;;2.83;1.10;;;16.70;99.90;18.20;102678.00;;;;6251166;22;20192;-67
2023/05/30 07:26:20;;;;;;;1.38;0.60;;;16.40;99.90;20.00;102647.00;;;;6251164;22;20137;-67
2023/05/30 07:28:46;;;;;;;2.75;0.60;;;17.10;99.90;20.30;102634.00;;;;6246715;22;20656;-67
2023/05/30 07:31:12;;;;;;;3.40;0.40;;;17.40;99.90;18.00;102683.00;;;;6277057;22;20180;-67
2023/05/30 07:33:37;;;;;;;0.32;0.32;;;16.60;99.90;18.60;102675.00;;;;6249842;22;20148;-67
2023/05/30 07:36:03;;;;;;;1.27;0.95;;;16.30;99.90;19.90;102664.00;;;;6250334;22;20145;-67
2023/05/30 07:38:29;;;;;;;3.58;1.33;;;17.20;99.90;17.40;102693.00;;;;6276891;22;20578;-67
2023/05/30 07:40:55;;;;;;;1.27;0.90;;;16.20;99.90;18.30;102688.00;;;;6224550;22;20163;-67
2023/05/30 07:43:21;;;;;;;0.20;0.20;;;16.10;99.90;19.90;102608.00;;;;6249888;22;20165;-67
2023/05/30 07:45:47;;;;;;;0.10;0.10;;;16.70;99.90;21.20;102585.00;;;;6250148;22;20220;-67
2023/05/30 07:48:13;;;;;;;0.30;0.30;;;17.60;99.90;20.20;102655.00;;;;6249729;22;20565;-67
2023/05/30 07:50:43;;;;;;;1.73;1.20;;;17.50;99.90;20.10;102656.00;;;;6277031;22;20142;-67
2023/05/30 07:53:17;;;;;;;2.92;1.60;;;17.70;99.90;17.40;102701.00;;;;6250155;22;20543;-67
2023/05/30 07:55:55;;;;;;;1.90;0.93;;;16.50;99.90;20.00;102665.00;;;;6250024;22;20140;-67
2023/05/30 07:58:26;;;;;;;2.75;0.57;;;17.00;99.90;20.80;102592.00;;;;6250920;22;20160;-67
2023/05/30 08:01:02;;;;;;;0.20;0.20;;;18.00;99.90;21.30;102652.00;;;;6250381;22;20171;-67
2023/05/30 08:03:42;;;;;;;1.45;1.00;;;18.10;99.90;21.50;102630.00;;;;6246036;23;20169;-67
2023/05/30 08:06:37;;;;;;;1.00;0.82;;;18.70;99.90;21.20;102632.00;;;;6220037;23;20157;-67
2023/05/30 08:09:11;;;;;;;2.00;1.55;;;18.70;99.90;20.50;102640.00;;;;6219781;23;20554;-67
2023/05/30 08:15:37;;;;;;;1.80;1.10;;;17.80;99.90;20.20;102642.00;;;;6245995;23;20157;-67
2023/05/30 08:18:31;;;;;;;0.68;0.50;;;17.90;99.90;20.30;102602.00;;;;6222608;23;20453;-67
2023/05/30 08:21:22;;;;;;;2.28;2.00;;;17.90;99.90;19.30;102612.00;;;;6070351;23;20665;-69
2023/05/30 08:24:30;;;;;;;0.22;0.22;;;17.50;99.90;19.30;102665.00;;;;6062010;23;20350;-69
2023/05/30 08:27:19;;;;;;;3.30;1.38;;;17.20;99.90;20.20;102617.00;;;;6222513;23;20195;-69
2023/05/30 08:29:50;;;;;;;1.45;1.35;;;17.40;99.90;20.50;102648.00;;;;6219210;23;20176;-69
2023/05/30 08:32:34;;;;;;;1.02;1.02;;;18.00;99.90;18.30;102699.00;;;;6219478;23;20162;-69
2023/05/30 08:35:20;;;;;;;3.13;1.38;;;17.30;99.90;19.60;102654.00;;;;6194156;23;20153;-70
2023/05/30 08:38:05;;;;;;;1.15;0.90;;;17.50;99.90;19.20;102676.00;;;;6194325;23;20725;-69
2023/05/30 08:41:17;;;;;;;1.75;0.90;;;17.40;99.90;21.70;102621.00;;;;6219360;23;20142;-72
2023/05/30 08:44:07;;;;;;;2.30;2.08;;;17.90;99.90;19.00;102673.00;;;;6219688;23;20244;-68
2023/05/30 08:46:59;;;;;;;5.97;1.70;;;17.30;99.90;19.70;102657.00;;;;6219921;23;20490;-69
2023/05/30 08:49:51;;;;;;;0.98;0.98;;;17.50;99.90;18.80;102671.00;;;;6219210;23;20232;-69
2023/05/30 08:52:40;;;;;;;1.60;1.00;;;17.20;99.90;20.60;102632.00;;;;6200058;23;20162;-68
2023/05/30 08:56:01;;;;;;;1.60;1.05;;;17.90;99.90;20.60;102639.00;;;;6218997;23;20158;-68
2023/05/30 08:59:00;;;;;;;1.52;0.40;;;18.40;99.90;22.50;102605.00;;;;6219578;23;20164;-69
2023/05/30 09:01:44;;;;;;;6.93;2.60;;;19.20;99.90;20.60;102640.00;;;;6193761;23;20157;-72
2023/05/30 09:05:00;;;;;;;2.50;1.38;;;18.90;99.90;20.30;102630.00;;;;6194010;23;20660;-68
2023/05/30 09:08:08;;;;;;;1.95;1.48;;;18.40;99.90;21.60;102611.00;;;;6223752;23;20176;-68
2023/05/30 09:11:04;;;;;;;1.70;1.60;;;19.40;99.90;21.00;102628.00;;;;6245613;23;20582;-68
2023/05/30 09:14:10;;;;;;;3.70;3.42;;;18.70;99.90;23.50;102552.00;;;;6244882;23;20586;-69
2023/05/30 09:17:25;;;;;;;4.75;1.67;;;19.70;99.90;21.90;102613.00;;;;6193012;23;20160;-69
2023/05/30 09:20:34;;;;;;;0.20;0.20;;;19.50;99.90;22.60;102597.00;;;;6196047;23;20213;-68
2023/05/30 09:23:23;;;;;;;13.80;4.90;;;19.40;99.90;21.10;102626.00;;;;6192180;23;20186;-69
2023/05/30 09:26:27;;;;;;;1.27;1.17;;;19.40;99.90;22.20;102613.00;;;;6219031;23;20532;-68
2023/05/30 09:29:32;;;;;;;2.30;2.10;;;19.40;99.90;21.00;102606.00;;;;6193251;23;20621;-68
2023/05/30 09:32:36;;;;;;;1.83;1.65;;;19.10;99.90;20.70;102631.00;;;;6218582;23;20207;-68
2023/05/30 09:35:38;;;;;;;1.17;1.08;;;18.90;99.90;22.40;102606.00;;;;6193837;23;20157;-68
2023/05/30 09:38:29;;;;;;;7.65;2.50;;;19.60;99.90;22.10;102597.00;;;;6218789;23;20604;-67
2023/05/30 09:41:13;;;;;;;2.28;2.15;;;19.80;99.90;22.00;102598.00;;;;6218965;23;20256;-68
2023/05/30 09:44:18;;;;;;;1.65;1.52;;;19.60;99.90;21.10;102620.00;;;;6218930;23;20169;-69
2023/05/30 09:47:08;;;;;;;7.95;2.22;;;18.80;99.90;21.30;102621.00;;;;6214923;23;20165;-68
2023/05/30 09:49:53;;;;;;;0.10;0.10;;;18.90;99.90;22.90;102561.00;;;;6217549;23;20232;-68
2023/05/30 09:52:57;;;;;;;1.63;1.17;;;19.60;99.90;23.50;102559.00;;;;6192681;23;20197;-68
2023/05/30 09:55:27;;;;;;;4.60;2.30;;;20.60;99.90;20.20;102630.00;;;;6193510;23;20584;-69
2023/05/30 09:58:24;;;;;;;2.05;1.58;;;19.50;99.90;19.80;102630.00;;;;6193073;23;20576;-68
2023/05/30 10:01:37;;;;;;;0.80;0.63;;;18.20;99.90;21.30;102564.00;;;;6265368;22;20168;-68
2023/05/30 10:04:27;;;;;;;2.28;1.42;;;18.60;99.90;21.50;102595.00;;;;6274449;22;20566;-68
2023/05/30 10:06:54;;;;;;;1.80;1.13;;;19.30;99.90;21.80;102589.00;;;;6273810;22;20157;-68
2023/05/30 10:09:22;;;;;;;1.05;1.02;;;19.60;99.90;21.80;102601.00;;;;6248852;22;20149;-68
2023/05/30 10:12:03;;;;;;;0.20;0.20;;;19.60;99.90;22.70;102583.00;;;;6274714;22;20153;-68
2023/05/30 10:14:50;;;;;;;0.90;0.60;;;19.80;99.90;23.20;102556.00;;;;6274196;22;20163;-68
2023/05/30 10:18:01;;;;;;;2.22;1.20;;;20.50;99.90;22.70;102585.00;;;;6274218;22;20242;-68
2023/05/30 10:20:31;;;;;;;0.10;0.10;;;20.40;99.90;22.20;102584.00;;;;6263406;22;20587;-68
2023/05/30 10:34:01;;;;;;;1.75;1.25;;;19.90;99.90;23.60;102568.00;;;;5079043;28;20567;-67
2023/05/30 10:36:49;;;;;;;8.65;3.17;;;21.00;99.90;22.30;102580.00;;;;5039803;28;20284;-68
2023/05/30 10:40:06;;;;;;;0.73;0.73;;;21.40;99.90;23.70;102567.00;;;;5048009;28;20210;-68
2023/05/30 10:43:10;;;;;;;1.83;1.35;;;20.60;99.90;23.50;102553.00;;;;5049732;28;20713;-68
2023/05/30 10:46:07;;;;;;;1.02;0.95;;;20.90;99.90;24.40;102538.00;;;;5058534;28;20218;-68
2023/05/30 10:48:38;;;;;;;0.98;0.85;;;21.40;99.90;23.10;102532.00;;;;5057019;28;20206;-68
2023/05/30 10:52:00;;;;;;;0.93;0.90;;;21.50;99.90;25.50;102515.00;;;;5048533;28;20273;-67
2023/05/30 10:54:55;;;;;;;0.20;0.20;;;21.60;99.90;25.50;102526.00;;;;5035634;28;20189;-68
2023/05/30 10:57:25;;;;;;;0.68;0.68;;;21.90;99.90;25.40;102520.00;;;;5041032;28;20283;-68
2023/05/30 10:59:56;;;;;;;0.65;0.65;;;22.60;99.90;23.90;102548.00;;;;5049882;28;20205;-68
2023/05/30 11:02:37;;;;;;;4.38;2.13;;;22.30;99.90;24.80;102506.00;;;;5048605;28;20314;-68
2023/05/30 11:05:33;;;;;;;1.08;1.00;;;22.10;99.90;25.10;102538.00;;;;5018709;28;20692;-67
2023/05/30 11:08:20;;;;;;;0.40;0.40;;;21.70;99.90;25.20;102530.00;;;;5032513;28;20783;-68
2023/05/30 11:11:33;;;;;;;0.40;0.40;;;22.20;99.90;24.70;102527.00;;;;5047682;28;20269;-66
2023/05/30 11:14:04;;;;;;;3.13;0.63;;;21.80;99.90;24.20;102546.00;;;;5036833;28;20179;-67
2023/05/30 11:16:31;;;;;;;0.68;0.68;;;21.70;99.90;23.80;102549.00;;;;5033786;28;20179;-67
2023/05/30 11:19:15;;;;;;;2.42;1.95;;;21.30;99.90;22.30;102536.00;;;;5048098;28;20828;-67
2023/05/30 11:22:03;;;;;;;1.27;1.13;;;20.80;99.90;22.00;102588.00;;;;5048515;28;20187;-67
2023/05/30 11:24:31;;;;;;;4.97;0.65;;;20.20;99.90;22.90;102539.00;;;;5032829;28;20232;-67
2023/05/30 11:27:06;;;;;;;9.52;3.40;;;20.30;99.90;24.60;102539.00;;;;5041749;28;20225;-67
2023/05/30 11:29:43;;;;;;;2.75;1.63;;;21.50;99.90;22.30;102582.00;;;;5045449;28;20216;-67
2023/05/30 11:32:11;;;;;;;2.15;0.80;;;21.00;99.90;24.10;102553.00;;;;5041189;28;20210;-67
2023/05/30 11:34:38;;;;;;;4.45;1.58;;;21.40;99.90;22.60;102566.00;;;;5055007;28;20217;-67
2023/05/30 11:37:05;;;;;;;3.97;2.00;;;20.90;99.90;22.70;102552.00;;;;5055473;28;20714;-67
2023/05/30 11:39:32;;;;;;;1.33;1.23;;;20.90;99.90;22.70;102564.00;;;;5053626;28;20216;-67
2023/05/30 11:42:05;;;;;;;0.98;0.82;;;20.70;99.90;24.50;102534.00;;;;5057136;28;20277;-67
2023/05/30 11:44:32;;;;;;;0.80;0.80;;;21.50;99.90;25.40;102474.00;;;;5027066;28;20179;-67
2023/05/30 11:47:10;;;;;;;3.03;2.60;;;22.40;99.90;21.20;102526.00;;;;5034176;28;20182;-67
2023/05/30 11:49:54;;;;;;;1.15;1.05;;;20.80;99.90;23.00;102548.00;;;;5034223;28;20186;-67
2023/05/30 11:52:20;;;;;;;3.10;2.30;;;20.20;99.90;22.40;102564.00;;;;5034101;28;20673;-67
2023/05/30 11:54:58;;;;;;;0.80;0.63;;;20.40;99.90;22.20;102573.00;;;;5034360;28;20179;-67
2023/05/30 11:57:31;;;;;;;0.85;0.85;;;19.90;99.90;22.50;102572.00;;;;5032876;28;20197;-67
2023/05/30 11:59:58;;;;;;;1.48;1.25;;;19.90;99.90;22.60;102561.00;;;;5033196;28;20191;-67
2023/05/30 12:02:31;;;;;;;0.60;0.55;;;20.10;99.90;22.00;102559.00;;;;5034249;28;20199;-67
2023/05/30 12:05:05;;;;;;;5.35;1.58;;;19.70;99.90;22.40;102550.00;;;;5033778;28;20210;-67
2023/05/30 12:07:32;;;;;;;2.80;1.65;;;19.80;99.90;21.90;102564.00;;;;5032699;28;20189;-67
2023/05/30 12:09:58;;;;;;;0.90;0.85;;;19.80;99.90;23.40;102547.00;;;;5019950;28;20589;-67
2023/05/30 12:12:30;;;;;;;0.85;0.85;;;20.30;99.90;24.00;102531.00;;;;5032873;28;20199;-67
2023/05/30 12:15:09;;;;;;;2.20;1.33;;;20.70;99.90;23.50;102532.00;;;;5013792;28;20194;-67
2023/05/30 12:17:45;;;;;;;2.50;1.02;;;20.80;99.90;22.90;102534.00;;;;5029589;28;20194;-67
2023/05/30 12:20:17;;;;;;;6.82;2.22;;;20.60;99.90;23.10;102528.00;;;;5034339;28;20241;-67
2023/05/30 12:22:53;;;;;;;2.85;1.17;;;20.50;99.90;23.10;102525.00;;;;5034241;28;20243;-67
2023/05/30 12:25:28;;;;;;;0.43;0.30;;;20.70;99.90;24.20;102479.00;;;;5026170;28;20183;-67
2023/05/30 12:28:05;;;;;;;1.98;1.60;;;20.90;99.90;24.00;102517.00;;;;5033699;28;20546;-67
2023/05/30 12:30:37;;;;;;;0.65;0.65;;;21.20;99.90;24.30;102507.00;;;;5023756;28;20192;-67
2023/05/30 12:33:17;;;;;;;1.23;1.13;;;21.10;99.90;24.40;102496.00;;;;5033557;28;20573;-67
2023/05/30 12:35:54;;;;;;;1.25;0.95;;;21.20;99.90;24.00;102507.00;;;;5033464;28;20183;-67
2023/05/30 12:38:26;;;;;;;2.15;2.05;;;21.50;99.90;23.80;102510.00;;;;5018334;28;20654;-67
2023/05/30 12:40:51;;;;;;;0.13;0.13;;;21.10;99.90;24.10;102498.00;;;;5017155;28;20537;-67
2023/05/30 12:43:28;;;;;;;2.72;1.60;;;20.90;99.90;22.50;102532.00;;;;5034226;28;20179;-66
2023/05/30 12:46:08;;;;;;;14.57;2.38;;;20.60;99.90;23.40;102503.00;;;;5034506;28;20182;-67
2023/05/30 12:48:45;;;;;;;1.13;0.47;;;20.60;99.90;23.30;102516.00;;;;5034179;28;20186;-67
2023/05/30 12:51:17;;;;;;;0.50;0.50;;;20.50;99.90;23.90;102503.00;;;;5033335;28;20217;-66
2023/05/30 12:53:43;;;;;;;2.00;0.50;;;20.60;99.90;24.10;102499.00;;;;5032509;28;20237;-67
2023/05/30 12:56:12;;;;;;;0.47;0.47;;;20.60;99.90;24.60;102492.00;;;;5032427;28;20182;-67
2023/05/30 12:58:48;;;;;;;2.58;1.45;;;21.10;99.90;24.00;102492.00;;;;5034703;28;20514;-67
2023/05/30 13:01:22;;;;;;;1.65;1.55;;;21.10;99.90;23.10;102497.00;;;;5033897;28;20200;-66
2023/05/30 13:03:59;;;;;;;1.35;1.13;;;20.60;99.90;24.90;102482.00;;;;5033246;28;20740;-67
2023/05/30 13:06:37;;;;;;;7.03;1.50;;;21.20;99.90;24.00;102476.00;;;;5034217;28;20182;-67
2023/05/30 13:09:04;;;;;;;1.10;1.02;;;21.40;99.90;23.70;102485.00;;;;5023527;28;20666;-67
2023/05/30 13:11:31;;;;;;;2.28;1.40;;;21.10;99.90;23.50;102494.00;;;;5032670;28;20763;-67
2023/05/30 13:14:04;;;;;;;0.73;0.63;;;20.90;99.90;23.40;102480.00;;;;5031094;28;20214;-67
2023/05/30 13:16:53;;;;;;;0.90;0.70;;;20.50;99.90;23.10;102508.00;;;;5032120;28;20175;-67
2023/05/30 13:19:19;;;;;;;4.53;2.10;;;20.60;99.90;23.80;102438.00;;;;5044096;28;20649;-67
2023/05/30 13:21:45;;;;;;;1.55;0.90;;;20.90;99.90;23.50;102500.00;;;;5033611;28;20210;-66
2023/05/30 13:24:12;;;;;;;4.97;1.75;;;20.80;99.90;23.70;102488.00;;;;5021882;28;20183;-67
2023/05/30 13:26:58;;;;;;;1.65;0.75;;;20.80;99.90;23.90;102492.00;;;;5015912;28;20643;-66
2023/05/30 13:29:27;;;;;;;3.65;0.90;;;21.00;99.90;23.60;102493.00;;;;5016427;28;20195;-66
2023/05/30 13:32:28;;;;;;;0.30;0.30;;;20.90;99.90;24.70;102431.00;;;;5024216;28;20219;-66
2023/05/30 13:34:57;;;;;;;1.90;1.17;;;21.10;99.90;24.40;102461.00;;;;5023900;28;20225;-66
2023/05/30 13:37:44;;;;;;;4.18;2.80;;;21.50;99.90;24.00;102466.00;;;;5028180;28;20237;-66
2023/05/30 13:40:10;;;;;;;3.83;2.03;;;21.40;99.90;23.10;102480.00;;;;5033275;28;20206;-66
2023/05/30 13:42:54;;;;;;;1.85;1.42;;;20.80;99.90;23.30;102487.00;;;;5032933;28;20648;-66
2023/05/30 13:45:46;;;;;;;2.58;1.73;;;20.70;99.90;23.20;102473.00;;;;5018346;28;20529;-66
2023/05/30 13:48:57;;;;;;;1.38;1.13;;;20.60;99.90;23.00;102491.00;;;;5005495;28;20186;-66
2023/05/30 13:52:08;;;;;;;4.90;1.10;;;20.70;99.90;22.80;102480.00;;;;5023552;28;20199;-66
2023/05/30 13:55:10;;;;;;;1.27;1.17;;;20.40;99.90;24.30;102411.00;;;;5022214;28;20196;-66
2023/05/30 13:58:03;;;;;;;1.20;1.13;;;20.90;99.90;23.20;102485.00;;;;5032806;28;20636;-66
2023/05/30 14:01:12;;;;;;;0.88;0.82;;;21.00;99.90;23.10;102489.00;;;;5030189;28;20179;-66
2023/05/30 14:04:16;;;;;;;0.70;0.50;;;20.70;99.90;23.90;102469.00;;;;5031784;28;20194;-66
2023/05/30 14:07:05;;;;;;;1.77;1.65;;;21.00;99.90;24.60;102458.00;;;;5032211;28;20186;-67
2023/05/30 14:10:06;;;;;;;0.73;0.73;;;21.10;99.90;24.00;102466.00;;;;5032023;28;20270;-66
2023/05/30 14:13:07;;;;;;;0.93;0.88;;;21.30;99.90;23.70;102461.00;;;;5015056;28;20205;-66
2023/05/30 14:16:18;;;;;;;0.82;0.75;;;21.10;99.90;24.80;102403.00;;;;5033873;28;20204;-66
2023/05/30 14:19:16;;;;;;;2.30;1.67;;;21.40;99.90;24.10;102415.00;;;;5025855;28;20190;-66
2023/05/30 14:22:10;;;;;;;0.20;0.20;;;21.40;99.90;25.10;102450.00;;;;5020127;28;20278;-66
2023/05/30 14:25:03;;;;;;;0.20;0.20;;;21.50;99.90;24.50;102412.00;;;;5018719;28;20202;-66
2023/05/30 14:28:07;;;;;;;2.00;1.42;;;21.50;99.90;23.40;102437.00;;;;5030792;28;20522;-66
2023/05/30 14:31:09;;;;;;;1.75;0.93;;;21.10;99.90;23.50;102452.00;;;;5027145;28;20190;-66
2023/05/30 14:34:00;;;;;;;2.55;1.63;;;20.90;99.90;23.60;102459.00;;;;5026790;28;20273;-66
2023/05/30 14:37:01;;;;;;;0.38;0.38;;;20.80;99.90;23.70;102461.00;;;;5031884;28;20191;-66
2023/05/30 14:40:07;;;;;;;2.78;1.70;;;20.90;99.90;24.30;102447.00;;;;5031831;28;20182;-67
2023/05/30 14:43:14;;;;;;;2.20;2.10;;;21.00;99.90;24.10;102455.00;;;;5028328;28;20213;-66
2023/05/30 14:45:45;;;;;;;2.00;0.77;;;20.80;99.90;25.20;102432.00;;;;5031765;28;20202;-66
2023/05/30 14:48:43;;;;;;;2.08;1.23;;;21.30;99.90;24.10;102405.00;;;;5031585;28;20186;-66
2023/05/30 14:51:38;;;;;;;3.15;2.95;;;21.30;99.90;24.10;102449.00;;;;5028350;28;20206;-66
2023/05/30 14:54:27;;;;;;;5.40;1.63;;;20.90;99.90;23.70;102446.00;;;;5032761;28;20186;-66
2023/05/30 14:57:21;;;;;;;0.70;0.70;;;21.00;99.90;23.30;102464.00;;;;5017020;28;20184;-66
2023/05/30 15:00:18;;;;;;;0.10;0.10;;;20.70;99.90;24.30;102413.00;;;;5011925;28;20187;-66
2023/05/30 15:03:44;;;;;;;37.80;4.53;;;20.80;99.90;23.80;102466.00;;;;5029051;28;20175;-66
2023/05/30 15:06:46;;;;;;;1.92;1.45;;;20.80;99.90;22.90;102473.00;;;;5019600;28;20183;-66
2023/05/30 15:09:19;;;;;;;5.28;2.28;;;20.70;99.90;22.30;102475.00;;;;5021759;28;20823;-66
2023/05/30 15:11:45;;;;;;;1.17;1.10;;;20.30;99.90;23.00;102478.00;;;;5029740;28;20225;-66
2023/05/30 15:14:11;;;;;;;1.70;1.60;;;20.30;99.90;23.00;102466.00;;;;5037809;28;20199;-66
2023/05/30 15:16:37;;;;;;;0.20;0.20;;;20.30;99.90;23.50;102476.00;;;;5039225;28;20186;-66
2023/05/30 15:19:08;;;;;;;2.80;1.88;;;20.40;99.90;23.40;102466.00;;;;5041267;28;20175;-66
2023/05/30 15:21:41;;;;;;;1.33;1.25;;;20.50;99.90;23.10;102470.00;;;;5027589;28;20710;-66
2023/05/30 15:24:25;;;;;;;0.32;0.32;;;20.40;99.90;23.50;102475.00;;;;5026868;28;20277;-66
2023/05/30 15:26:56;;;;;;;0.25;0.25;;;20.40;99.90;23.60;102476.00;;;;5042782;28;20179;-66
2023/05/30 15:29:22;;;;;;;1.70;1.55;;;20.40;99.90;23.30;102455.00;;;;5042598;28;20194;-66
2023/05/30 15:31:52;;;;;;;3.20;1.48;;;20.50;99.90;23.20;102481.00;;;;5041359;28;20207;-66
2023/05/30 15:35:04;;;;;;;1.75;1.65;;;20.40;99.90;22.80;102488.00;;;;5041750;28;20230;-66
2023/05/30 15:37:42;;;;;;;2.90;1.83;;;20.20;99.90;22.60;102492.00;;;;5032443;28;20186;-66
2023/05/30 15:40:09;;;;;;;3.03;2.70;;;20.10;99.90;23.10;102481.00;;;;5042900;28;20222;-65
2023/05/30 15:42:34;;;;;;;1.13;1.13;;;20.30;99.90;23.30;102471.00;;;;5043233;28;20239;-66
2023/05/30 15:45:11;;;;;;;4.40;2.33;;;20.20;99.90;23.70;102453.00;;;;5026453;28;20674;-65
2023/05/30 15:47:38;;;;;;;2.40;2.05;;;20.40;99.90;23.50;102471.00;;;;5044004;28;20565;-66
2023/05/30 15:50:19;;;;;;;2.22;1.55;;;20.40;99.90;22.20;102491.00;;;;5042916;28;20214;-66
2023/05/30 15:53:10;;;;;;;0.10;0.10;;;20.10;99.90;22.70;102474.00;;;;5027282;28;20209;-65
2023/05/30 15:55:56;;;;;;;0.68;0.68;;;19.90;99.90;22.40;102485.00;;;;5044143;28;20610;-65
2023/05/30 15:58:25;;;;;;;1.80;1.70;;;19.90;99.90;22.20;102483.00;;;;5042026;28;20183;-65
2023/05/30 16:01:24;;;;;;;0.47;0.47;;;19.80;99.90;22.70;102476.00;;;;5024571;28;20240;-66
2023/05/30 16:03:53;;;;;;;1.75;1.20;;;19.90;99.90;23.20;102411.00;;;;5025273;28;20221;-65
2023/05/30 16:06:37;;;;;;;2.75;1.67;;;20.00;99.90;22.70;102444.00;;;;5043159;28;20243;-66
2023/05/30 16:09:21;;;;;;;1.52;1.42;;;20.00;99.90;21.90;102465.00;;;;5042891;28;20182;-66
2023/05/30 16:11:57;;;;;;;2.95;2.00;;;19.70;99.90;22.20;102447.00;;;;5041775;28;20198;-65
2023/05/30 16:15:00;;;;;;;0.40;0.40;;;19.50;99.90;23.20;102438.00;;;;5042923;28;20270;-66
2023/05/30 16:17:28;;;;;;;0.60;0.60;;;19.80;99.90;23.20;102425.00;;;;5042098;28;20194;-66
2023/05/30 16:20:29;;;;;;;0.32;0.32;;;19.90;99.90;22.80;102408.00;;;;5042273;28;20197;-66
2023/05/30 16:22:57;;;;;;;0.88;0.85;;;19.70;99.90;22.00;102433.00;;;;5041852;28;20332;-65
2023/05/30 16:25:23;;;;;;;0.88;0.88;;;19.50;99.90;22.00;102419.00;;;;5044560;28;20660;-66
2023/05/30 16:27:56;;;;;;;1.80;1.10;;;19.40;99.90;21.80;102420.00;;;;5041915;28;20189;-65
2023/05/30 16:30:22;;;;;;;1.13;0.43;;;19.40;99.90;22.00;102367.00;;;;5043726;28;20197;-65
2023/05/30 16:33:09;;;;;;;2.90;1.35;;;19.30;99.90;21.60;102396.00;;;;5023956;28;20775;-65
2023/05/30 16:35:34;;;;;;;1.38;1.13;;;19.10;99.90;22.30;102389.00;;;;5041609;28;20182;-66
2023/05/30 16:38:20;;;;;;;1.17;1.08;;;19.30;99.90;22.30;102398.00;;;;5043917;28;20594;-65
2023/05/30 16:40:55;;;;;;;4.93;1.88;;;19.50;99.90;22.20;102411.00;;;;5040281;28;20196;-66
2023/05/30 16:43:24;;;;;;;0.52;0.45;;;19.50;99.90;21.30;102407.00;;;;5040899;28;20672;-65
2023/05/30 16:46:13;;;;;;;2.42;1.73;;;19.20;99.90;21.50;102397.00;;;;5042206;28;20191;-65
2023/05/30 16:49:14;;;;;;;0.73;0.73;;;19.00;99.90;21.80;102345.00;;;;5034022;28;20608;-65
2023/05/30 16:52:00;;;;;;;1.80;1.38;;;19.10;99.90;22.10;102393.00;;;;5047576;28;20216;-66
2023/05/30 16:54:33;;;;;;;2.10;1.55;;;19.30;99.90;21.70;102402.00;;;;5039963;28;20185;-65
2023/05/30 16:57:01;;;;;;;1.77;1.70;;;19.20;99.90;21.40;102373.00;;;;5034011;28;20182;-65
2023/05/30 16:59:50;;;;;;;1.70;1.17;;;18.90;99.90;21.70;102389.00;;;;5032407;28;20202;-66
2023/05/30 17:02:24;;;;;;;2.53;1.95;;;18.90;99.90;21.60;102391.00;;;;5028005;28;20530;-65
2023/05/30 17:04:52;;;;;;;0.10;0.10;;;19.10;99.90;22.10;102386.00;;;;5032202;28;20285;-66
2023/05/30 17:07:40;;;;;;;2.83;1.70;;;19.10;99.90;21.50;102387.00;;;;5032703;28;20183;-65
2023/05/30 17:10:10;;;;;;;2.25;1.55;;;19.00;99.90;21.50;102389.00;;;;5022178;28;20221;-65
2023/05/30 17:12:53;;;;;;;0.45;0.45;;;19.00;99.90;21.90;102385.00;;;;5021722;28;20214;-65
2023/05/30 17:15:37;;;;;;;0.60;0.60;;;18.90;99.90;22.20;102377.00;;;;5022573;28;20199;-66
2023/05/30 17:18:03;;;;;;;0.90;0.50;;;19.20;99.90;21.80;102401.00;;;;5040791;28;20229;-65
2023/05/30 17:20:29;;;;;;;0.15;0.15;;;19.10;99.90;22.50;102405.00;;;;5031496;28;20641;-66
2023/05/30 17:22:58;;;;;;;5.97;1.23;;;19.20;99.90;22.10;102417.00;;;;5032720;28;20190;-65
2023/05/30 17:25:27;;;;;;;0.57;0.57;;;19.30;99.90;22.20;102417.00;;;;5030847;28;20675;-65
2023/05/30 17:28:14;;;;;;;2.00;1.10;;;19.10;99.90;21.70;102411.00;;;;5031434;28;20189;-66
2023/05/30 17:31:21;;;;;;;2.20;1.67;;;19.00;99.90;21.10;102387.00;;;;5032013;28;20206;-65
2023/05/30 17:33:50;;;;;;;0.17;0.17;;;18.70;99.90;21.40;102371.00;;;;5026736;28;20193;-65
2023/05/30 17:36:15;;;;;;;0.10;0.10;;;18.60;99.90;21.80;102362.00;;;;5032030;28;20186;-66
2023/05/30 17:38:41;;;;;;;0.97;0.77;;;18.70;99.90;21.00;102377.00;;;;5015407;28;20197;-65
2023/05/30 17:41:14;;;;;;;1.33;0.97;;;18.60;99.90;21.40;102329.00;;;;5028936;28;20185;-65
2023/05/30 17:43:46;;;;;;;0.63;0.63;;;18.50;99.90;21.00;102376.00;;;;5036239;28;20192;-65
2023/05/30 17:46:17;;;;;;;2.38;2.05;;;18.40;99.90;20.90;102366.00;;;;5007983;28;20197;-65
2023/05/30 17:49:18;;;;;;;1.07;0.87;;;18.40;99.90;20.80;102363.00;;;;5008091;28;20186;-65
2023/05/30 17:52:01;;;;;;;1.00;0.90;;;18.40;99.90;20.30;102335.00;;;;5025725;28;20208;-65
2023/05/30 17:54:27;;;;;;;2.97;2.73;;;18.00;99.90;19.90;102323.00;;;;5032221;28;20189;-65
2023/05/30 17:56:53;;;;;;;0.83;0.83;;;17.80;99.90;20.50;102323.00;;;;5031765;28;20190;-65
2023/05/30 17:59:19;;;;;;;0.37;0.37;;;17.90;99.90;20.50;102296.00;;;;5032310;28;20295;-65
2023/05/30 18:01:45;;;;;;;0.43;0.40;;;18.00;99.90;20.00;102322.00;;;;5032150;28;20195;-65
2023/05/30 18:04:18;;;;;;;1.67;1.40;;;17.80;99.90;19.90;102316.00;;;;5032289;28;20187;-65
2023/05/30 18:07:02;;;;;;;2.03;1.80;;;17.90;99.90;19.80;102274.00;;;;5047989;28;20217;-65
2023/05/30 18:09:30;;;;;;;8.17;2.67;;;17.70;99.90;19.90;102331.00;;;;5048836;28;20549;-65
2023/05/30 18:12:34;;;;;;;0.33;0.33;;;17.80;99.90;20.30;102287.00;;;;5048428;28;20227;-65
2023/05/30 18:15:18;;;;;;;0.70;0.70;;;17.70;99.90;20.30;102327.00;;;;5033152;28;20199;-65
2023/05/30 18:17:44;;;;;;;1.03;1.03;;;17.80;99.90;20.20;102332.00;;;;5049627;28;20227;-65
2023/05/30 18:20:11;;;;;;;1.90;1.47;;;17.90;99.90;20.30;102332.00;;;;5051444;28;20191;-65
2023/05/30 18:22:40;;;;;;;0.30;0.30;;;17.90;99.90;21.20;102342.00;;;;5048837;28;20196;-65
2023/05/30 18:25:12;;;;;;;2.53;1.20;;;18.10;99.90;19.90;102347.00;;;;5050183;28;20642;-65
2023/05/30 18:27:40;;;;;;;0.40;0.40;;;17.90;99.90;20.10;102285.00;;;;5046277;28;20203;-65
2023/05/30 18:30:29;;;;;;;0.83;0.70;;;17.70;99.90;19.60;102324.00;;;;5031611;28;20195;-65
2023/05/30 18:33:15;;;;;;;0.70;0.70;;;17.50;99.90;19.70;102281.00;;;;5048299;28;20274;-65
2023/05/30 18:35:54;;;;;;;1.27;0.77;;;17.40;99.90;19.50;102339.00;;;;5048115;28;20968;-65
2023/05/30 18:38:25;;;;;;;1.45;1.35;;;17.40;99.90;19.00;102320.00;;;;5047679;28;20182;-64
2023/05/30 18:41:13;;;;;;;0.82;0.82;;;17.30;99.90;19.30;102320.00;;;;5048107;28;20420;-64
2023/05/30 18:44:00;;;;;;;0.87;0.73;;;17.30;99.90;19.00;102321.00;;;;5048458;28;20211;-64
2023/05/30 18:47:04;;;;;;;1.53;0.70;;;17.10;99.90;18.80;102318.00;;;;5048421;28;20191;-64
2023/05/30 18:50:14;;;;;;;0.87;0.80;;;17.20;99.90;19.30;102325.00;;;;5048198;28;20253;-64
2023/05/30 18:52:48;;;;;;;2.17;1.97;;;17.10;99.90;18.60;102313.00;;;;5048645;28;20278;-65
2023/05/30 18:55:26;;;;;;;3.23;1.10;;;17.00;99.90;18.70;102315.00;;;;5036480;28;20184;-65
2023/05/30 18:58:27;;;;;;;0.60;0.60;;;16.90;99.90;18.90;102323.00;;;;5035589;28;20647;-65
2023/05/30 19:01:16;;;;;;;0.93;0.53;;;16.80;99.90;19.30;102282.00;;;;5013255;28;20189;-65
2023/05/30 19:04:22;;;;;;;0.63;0.63;;;16.90;99.90;19.20;102314.00;;;;5034073;28;20244;-65
2023/05/30 19:07:08;;;;;;;1.07;1.07;;;17.00;99.90;18.80;102310.00;;;;5021554;28;20194;-65